X  Fermer Données météorologiques d'aviation de Metar     LGSO Syros Airport
Température
11°C Température
5°C Point de rosée
67% Humidité



Vitesse
32 KM/H
20 MPH
9 M/S
17 KTS



330°
NNO
Conditions actuelles

Unknown Unknown
Pression 1022.01 (hPa) - 30.18 (inHg)
Visibilité 0 (mile) - 0 (km)
Aéroport
Code de l'aéroport LGSO

Emplacement: Syros Airport
Distance: 3 (km)

Metar:
LGSO 170550Z AUTO 33017G28KT //// // ////// 11/05 Q1022 RE//

Temps: 17-02-2024 05:50 EET